HellasGA Home

LGTS34 3.8DME MKRVisual DSC 0014

LGTS 040850Z VRB03KT 6000 FEW008 08/05 Q1027 NOSIG=

Photo info

EXIF data

Random image

Popular tags

View more information